Time;durP1;ratioP1;P1;durP2;ratioP2;P2;SDS_P1;SDS_P2;PMS_P1;PMS_P2;Temp;Humidity;BMP_temperature;BMP_pressure;BME280_temperature;BME280_humidity;BME280_pressure;Samples;Min_cycle;Max_cycle;Signal;HPM_P1;HPM_P2
2021/12/08 00:00:50;;;;;;;;;;;;;;;;;;2098095;28;20377;-57
2021/12/08 00:01:50;;;;;;;;;;;;;;;;;;2097827;28;20300;-55
2021/12/08 00:02:51;;;;;;;;;;;;;;;;;;2097563;28;19925;-55
2021/12/08 00:03:52;;;;;;;;;;;;;;;;;;2106654;28;19970;-55
2021/12/08 00:04:53;;;;;;;;;;;;;;;;;;2106112;28;19978;-56
2021/12/08 00:05:54;;;;;;;;;;;;;;;;;;2098520;28;19931;-55
2021/12/08 00:06:55;;;;;;;;;;;;;;;;;;2098441;28;19931;-56
2021/12/08 00:07:55;;;;;;;;;;;;;;;;;;2097902;28;20336;-57
2021/12/08 00:09:04;;;;;;;;;;;;;;;;;;2099687;28;20440;-57
2021/12/08 00:10:15;;;;;;;;;;;;;;;;;;2098325;28;19999;-57
2021/12/08 00:13:54;;;;;;;;;;;;;;;;;;2105171;28;19963;-57
2021/12/08 00:14:55;;;;;;;;;;;;;;;;;;2099677;28;19925;-57
2021/12/08 00:15:56;;;;;;;;;;;;;;;;;;2098285;28;19974;-57
2021/12/08 00:16:57;;;;;;;;;;;;;;;;;;2097465;28;20011;-57
2021/12/08 00:17:58;;;;;;;;;;;;;;;;;;2097229;28;19924;-57
2021/12/08 00:18:59;;;;;;;;;;;;;;;;;;2098307;28;19924;-57
2021/12/08 00:20:03;;;;;;;;;;;;;;;;;;2097760;28;19928;-57
2021/12/08 00:21:05;;;;;;;;;;;;;;;;;;2101719;28;19934;-57
2021/12/08 00:22:06;;;;;;;;;;;;;;;;;;2106680;28;19967;-57
2021/12/08 00:23:07;;;;;;;;;;;;;;;;;;2102994;28;19932;-56
2021/12/08 00:24:08;;;;;;;;;;;;;;;;;;2099116;28;19932;-58
2021/12/08 00:25:08;;;;;;;;;;;;;;;;;;2098290;28;19935;-56
2021/12/08 00:26:09;;;;;;;;;;;;;;;;;;2097191;28;19998;-55
2021/12/08 00:27:10;;;;;;;;;;;;;;;;;;2099227;28;19924;-57
2021/12/08 00:28:11;;;;;;;;;;;;;;;;;;2098118;28;19935;-56
2021/12/08 00:29:12;;;;;;;;;;;;;;;;;;2097067;28;19932;-57
2021/12/08 00:30:12;;;;;;;;;;;;;;;;;;2098762;28;20358;-57
2021/12/08 00:31:13;;;;;;;;;;;;;;;;;;2098327;28;20553;-58
2021/12/08 00:32:14;;;;;;;;;;;;;;;;;;2097635;28;19928;-58
2021/12/08 00:33:15;;;;;;;;;;;;;;;;;;2098315;28;19924;-58
2021/12/08 00:34:16;;;;;;;;;;;;;;;;;;2098213;28;19925;-57
2021/12/08 00:35:16;;;;;;;;;;;;;;;;;;2098078;28;19924;-58
2021/12/08 00:36:19;;;;;;;;;;;;;;;;;;2105661;28;19928;-58
2021/12/08 00:37:20;;;;;;;;;;;;;;;;;;2106384;28;20513;-57
2021/12/08 00:38:21;;;;;;;;;;;;;;;;;;2100377;28;19924;-58
2021/12/08 00:39:22;;;;;;;;;;;;;;;;;;2098136;28;19951;-58
2021/12/08 00:40:23;;;;;;;;;;;;;;;;;;2098173;28;20145;-58
2021/12/08 00:41:24;;;;;;;;;;;;;;;;;;2097896;28;19924;-58
2021/12/08 00:42:24;;;;;;;;;;;;;;;;;;2098203;28;20286;-58
2021/12/08 00:43:25;;;;;;;;;;;;;;;;;;2098179;28;20286;-58
2021/12/08 00:44:26;;;;;;;;;;;;;;;;;;2097880;28;19985;-57
2021/12/08 00:45:27;;;;;;;;;;;;;;;;;;2098085;28;19924;-58
2021/12/08 00:46:27;;;;;;;;;;;;;;;;;;2097475;28;20365;-58
2021/12/08 00:47:29;;;;;;;;;;;;;;;;;;2098358;28;19964;-58
2021/12/08 00:48:29;;;;;;;;;;;;;;;;;;2098124;28;19985;-58
2021/12/08 00:49:30;;;;;;;;;;;;;;;;;;2097702;28;19925;-58
2021/12/08 00:50:31;;;;;;;;;;;;;;;;;;2100806;28;19924;-58
2021/12/08 00:51:32;;;;;;;;;;;;;;;;;;2106475;28;19924;-58
2021/12/08 00:52:32;;;;;;;;;;;;;;;;;;2104069;28;19928;-58
2021/12/08 00:53:33;;;;;;;;;;;;;;;;;;2098435;28;19925;-58
2021/12/08 00:54:34;;;;;;;;;;;;;;;;;;2098055;28;19932;-59
2021/12/08 00:55:35;;;;;;;;;;;;;;;;;;2097386;28;19924;-57
2021/12/08 00:56:36;;;;;;;;;;;;;;;;;;2098408;28;19925;-58
2021/12/08 00:57:37;;;;;;;;;;;;;;;;;;2098019;28;19931;-58
2021/12/08 00:58:38;;;;;;;;;;;;;;;;;;2097182;28;20316;-58
2021/12/08 00:59:38;;;;;;;;;;;;;;;;;;2102034;28;20300;-58
2021/12/08 01:00:58;;;;;;;;;;;;;;;;;;2106471;28;19930;-58
2021/12/08 01:02:02;;;;;;;;;;;;;;;;;;2098831;28;19925;-58
2021/12/08 01:03:03;;;;;;;;;;;;;;;;;;2106090;28;19925;-58
2021/12/08 01:04:04;;;;;;;;;;;;;;;;;;2106335;28;19924;-58
2021/12/08 01:05:05;;;;;;;;;;;;;;;;;;2098962;28;20392;-58
2021/12/08 01:06:05;;;;;;;;;;;;;;;;;;2097920;28;19932;-58
2021/12/08 01:07:06;;;;;;;;;;;;;;;;;;2098159;28;20007;-40
2021/12/08 01:08:07;;;;;;;;;;;;;;;;;;2097817;28;19925;-43
2021/12/08 01:09:08;;;;;;;;;;;;;;;;;;2097906;28;19929;-43
2021/12/08 01:10:09;;;;;;;;;;;;;;;;;;2098051;28;19981;-42
2021/12/08 01:11:29;;;;;;;;;;;;;;;;;;2097963;28;19924;-42
2021/12/08 01:12:30;;;;;;;;;;;;;;;;;;2098021;28;19924;-43
2021/12/08 01:13:31;;;;;;;;;;;;;;;;;;2097829;28;19931;-43
2021/12/08 01:14:32;;;;;;;;;;;;;;;;;;2097633;28;19970;-43
2021/12/08 01:15:33;;;;;;;;;;;;;;;;;;2097915;28;19925;-43
2021/12/08 01:16:34;;;;;;;;;;;;;;;;;;2097031;28;19943;-43
2021/12/08 01:17:36;;;;;;;;;;;;;;;;;;2103049;28;19924;-41
2021/12/08 01:18:37;;;;;;;;;;;;;;;;;;2106424;28;20011;-43
2021/12/08 01:19:38;;;;;;;;;;;;;;;;;;2100362;28;19928;-43
2021/12/08 01:20:39;;;;;;;;;;;;;;;;;;2098515;28;20269;-42
2021/12/08 01:21:44;;;;;;;;;;;;;;;;;;2097947;28;19925;-41
2021/12/08 01:22:45;;;;;;;;;;;;;;;;;;2097903;28;19931;-43
2021/12/08 01:23:46;;;;;;;;;;;;;;;;;;2097848;28;19974;-42
2021/12/08 01:24:46;;;;;;;;;;;;;;;;;;2097770;28;20006;-43
2021/12/08 01:25:47;;;;;;;;;;;;;;;;;;2097715;28;20065;-43
2021/12/08 01:26:48;;;;;;;;;;;;;;;;;;2097738;28;19973;-43
2021/12/08 01:27:49;;;;;;;;;;;;;;;;;;2097954;28;20055;-43
2021/12/08 01:28:52;;;;;;;;;;;;;;;;;;2097299;28;19928;-43
2021/12/08 01:29:52;;;;;;;;;;;;;;;;;;2099294;28;19968;-42
2021/12/08 01:30:54;;;;;;;;;;;;;;;;;;2099412;28;19924;-43
2021/12/08 01:31:54;;;;;;;;;;;;;;;;;;2103569;28;20005;-43
2021/12/08 01:32:56;;;;;;;;;;;;;;;;;;2107621;28;19924;-42
2021/12/08 01:33:57;;;;;;;;;;;;;;;;;;2103868;28;19975;-42
2021/12/08 01:34:58;;;;;;;;;;;;;;;;;;2100152;28;19925;-42
2021/12/08 01:35:59;;;;;;;;;;;;;;;;;;2099252;28;20061;-43
2021/12/08 01:37:00;;;;;;;;;;;;;;;;;;2098319;28;19928;-43
2021/12/08 01:38:01;;;;;;;;;;;;;;;;;;2099960;28;19993;-43
2021/12/08 01:39:01;;;;;;;;;;;;;;;;;;2099391;28;19935;-43
2021/12/08 01:40:02;;;;;;;;;;;;;;;;;;2099348;28;19924;-43
2021/12/08 01:41:03;;;;;;;;;;;;;;;;;;2100191;28;19960;-43
2021/12/08 01:42:05;;;;;;;;;;;;;;;;;;2099180;28;19970;-43
2021/12/08 01:43:12;;;;;;;;;;;;;;;;;;2098091;28;20011;-43
2021/12/08 01:46:52;;;;;;;;;;;;;;;;;;2102934;28;20459;-43
2021/12/08 01:47:53;;;;;;;;;;;;;;;;;;2107643;28;19924;-43
2021/12/08 01:48:54;;;;;;;;;;;;;;;;;;2102785;28;20403;-43
2021/12/08 01:49:54;;;;;;;;;;;;;;;;;;2099982;28;19924;-43
2021/12/08 01:50:55;;;;;;;;;;;;;;;;;;2099324;28;19924;-43
2021/12/08 01:51:56;;;;;;;;;;;;;;;;;;2099393;28;19925;-43
2021/12/08 01:52:57;;;;;;;;;;;;;;;;;;2104704;28;19924;-43
2021/12/08 01:54:01;;;;;;;;;;;;;;;;;;2107580;28;20070;-43
2021/12/08 01:55:02;;;;;;;;;;;;;;;;;;2101083;28;19975;-43
2021/12/08 01:56:03;;;;;;;;;;;;;;;;;;2105916;28;20392;-43
2021/12/08 01:57:03;;;;;;;;;;;;;;;;;;2107591;28;20308;-43
2021/12/08 01:58:04;;;;;;;;;;;;;;;;;;2101482;28;19928;-43
2021/12/08 01:59:05;;;;;;;;;;;;;;;;;;2099116;28;19925;-43
2021/12/08 02:00:06;;;;;;;;;;;;;;;;;;2099130;28;19931;-43
2021/12/08 02:01:07;;;;;;;;;;;;;;;;;;2099043;28;19982;-43
2021/12/08 02:02:08;;;;;;;;;;;;;;;;;;2107151;28;19999;-43
2021/12/08 02:03:08;;;;;;;;;;;;;;;;;;2107677;28;20381;-43
2021/12/08 02:04:09;;;;;;;;;;;;;;;;;;2099121;28;19924;-43
2021/12/08 02:05:10;;;;;;;;;;;;;;;;;;2107412;28;19925;-43
2021/12/08 02:06:11;;;;;;;;;;;;;;;;;;2107561;28;19950;-43
2021/12/08 02:07:12;;;;;;;;;;;;;;;;;;2097704;28;20301;-43
2021/12/08 02:08:13;;;;;;;;;;;;;;;;;;2107642;28;19931;-43
2021/12/08 02:09:14;;;;;;;;;;;;;;;;;;2106912;28;20308;-43
2021/12/08 02:10:14;;;;;;;;;;;;;;;;;;2099046;28;19928;-43
2021/12/08 02:11:15;;;;;;;;;;;;;;;;;;2099183;28;19925;-43
2021/12/08 02:12:16;;;;;;;;;;;;;;;;;;2098731;28;19928;-43
2021/12/08 02:13:17;;;;;;;;;;;;;;;;;;2099545;28;20246;-43
2021/12/08 02:14:17;;;;;;;;;;;;;;;;;;2099178;28;19924;-43
2021/12/08 02:15:22;;;;;;;;;;;;;;;;;;2098523;28;19928;-43
2021/12/08 02:16:22;;;;;;;;;;;;;;;;;;2102648;28;19977;-43
2021/12/08 02:17:23;;;;;;;;;;;;;;;;;;2107418;28;19935;-43
2021/12/08 02:18:24;;;;;;;;;;;;;;;;;;2104393;28;19924;-43
2021/12/08 02:19:25;;;;;;;;;;;;;;;;;;2099765;28;20292;-43
2021/12/08 02:20:26;;;;;;;;;;;;;;;;;;2099001;28;19947;-43
2021/12/08 02:21:27;;;;;;;;;;;;;;;;;;2098625;28;19931;-43
2021/12/08 02:22:28;;;;;;;;;;;;;;;;;;2103609;28;19924;-43
2021/12/08 02:23:30;;;;;;;;;;;;;;;;;;2107609;28;20365;-43
2021/12/08 02:24:32;;;;;;;;;;;;;;;;;;2102477;28;19924;-43
2021/12/08 02:25:32;;;;;;;;;;;;;;;;;;2104081;28;19973;-43
2021/12/08 02:26:33;;;;;;;;;;;;;;;;;;2107467;28;19947;-43
2021/12/08 02:27:34;;;;;;;;;;;;;;;;;;2101705;28;19925;-43
2021/12/08 02:28:35;;;;;;;;;;;;;;;;;;2104902;28;19968;-43
2021/12/08 02:29:41;;;;;;;;;;;;;;;;;;2098166;28;19925;-43
2021/12/08 02:30:46;;;;;;;;;;;;;;;;;;2097713;28;20380;-43
2021/12/08 02:31:54;;;;;;;;;;;;;;;;;;2106888;28;19924;-43
2021/12/08 02:47:52;;;;;;;;;;;;;;;;;;2074917;28;19925;-58
2021/12/08 02:48:52;;;;;;;;;;;;;;;;;;2096027;28;20452;-58
2021/12/08 02:49:53;;;;;;;;;;;;;;;;;;2098847;28;19924;-57
2021/12/08 02:50:54;;;;;;;;;;;;;;;;;;2097882;28;20280;-57
2021/12/08 02:51:55;;;;;;;;;;;;;;;;;;2105834;28;20280;-57
2021/12/08 02:52:56;;;;;;;;;;;;;;;;;;2107293;28;19924;-57
2021/12/08 02:53:57;;;;;;;;;;;;;;;;;;2101871;28;20453;-57
2021/12/08 02:54:58;;;;;;;;;;;;;;;;;;2098681;28;19924;-57
2021/12/08 02:55:59;;;;;;;;;;;;;;;;;;2098879;28;19978;-57
2021/12/08 02:57:00;;;;;;;;;;;;;;;;;;2097321;28;20353;-57
2021/12/08 02:58:01;;;;;;;;;;;;;;;;;;2107142;28;19928;-58
2021/12/08 02:59:02;;;;;;;;;;;;;;;;;;2107024;28;19931;-57
2021/12/08 03:00:04;;;;;;;;;;;;;;;;;;2099164;28;19924;-58
2021/12/08 03:01:04;;;;;;;;;;;;;;;;;;2098790;28;20019;-57
2021/12/08 03:02:05;;;;;;;;;;;;;;;;;;2098316;28;20019;-57
2021/12/08 03:03:06;;;;;;;;;;;;;;;;;;2100352;28;19927;-43
2021/12/08 03:04:07;;;;;;;;;;;;;;;;;;2098759;28;19929;-43
2021/12/08 03:05:08;;;;;;;;;;;;;;;;;;2098073;28;19951;-43
2021/12/08 03:06:09;;;;;;;;;;;;;;;;;;2100230;28;19928;-43
2021/12/08 03:07:09;;;;;;;;;;;;;;;;;;2098386;28;19974;-43
2021/12/08 03:08:10;;;;;;;;;;;;;;;;;;2098204;28;19928;-43
2021/12/08 03:09:11;;;;;;;;;;;;;;;;;;2099134;28;19991;-43
2021/12/08 03:10:12;;;;;;;;;;;;;;;;;;2098698;28;19928;-43
2021/12/08 03:11:12;;;;;;;;;;;;;;;;;;2098123;28;19924;-43
2021/12/08 03:12:13;;;;;;;;;;;;;;;;;;2099157;28;19925;-43
2021/12/08 03:13:14;;;;;;;;;;;;;;;;;;2098783;28;19989;-43
2021/12/08 03:14:15;;;;;;;;;;;;;;;;;;2098202;28;20297;-43
2021/12/08 03:15:16;;;;;;;;;;;;;;;;;;2098488;28;19925;-43
2021/12/08 03:16:17;;;;;;;;;;;;;;;;;;2098688;28;19924;-43
2021/12/08 03:17:18;;;;;;;;;;;;;;;;;;2097677;28;19925;-43
2021/12/08 03:18:19;;;;;;;;;;;;;;;;;;2105423;28;19925;-43
2021/12/08 03:19:21;;;;;;;;;;;;;;;;;;2107034;28;19924;-43
2021/12/08 03:20:27;;;;;;;;;;;;;;;;;;2101982;28;19979;-43
2021/12/08 03:21:31;;;;;;;;;;;;;;;;;;2098634;28;20011;-43
2021/12/08 03:22:33;;;;;;;;;;;;;;;;;;2098680;28;20325;-43
2021/12/08 03:23:45;;;;;;;;;;;;;;;;;;2099406;28;20329;-43
2021/12/08 03:24:47;;;;;;;;;;;;;;;;;;2098813;28;19995;-43
2021/12/08 03:25:55;;;;;;;;;;;;;;;;;;2097916;28;20011;-42
2021/12/08 03:27:06;;;;;;;;;;;;;;;;;;2098906;28;19924;-43
2021/12/08 03:28:13;;;;;;;;;;;;;;;;;;2098587;28;19979;-43
2021/12/08 03:29:22;;;;;;;;;;;;;;;;;;2097191;28;19999;-43
2021/12/08 03:30:29;;;;;;;;;;;;;;;;;;2098587;28;19938;-43
2021/12/08 03:31:34;;;;;;;;;;;;;;;;;;2098211;28;19932;-43
2021/12/08 03:32:38;;;;;;;;;;;;;;;;;;2100997;28;20011;-43
2021/12/08 03:33:39;;;;;;;;;;;;;;;;;;2106999;28;19946;-43
2021/12/08 03:34:42;;;;;;;;;;;;;;;;;;2104464;28;19936;-43
2021/12/08 03:35:43;;;;;;;;;;;;;;;;;;2098911;28;20055;-43
2021/12/08 03:36:44;;;;;;;;;;;;;;;;;;2098493;28;20479;-43
2021/12/08 03:37:45;;;;;;;;;;;;;;;;;;2097468;28;20458;-43
2021/12/08 03:38:45;;;;;;;;;;;;;;;;;;2099359;28;19931;-43
2021/12/08 03:39:48;;;;;;;;;;;;;;;;;;2098494;28;20296;-43
2021/12/08 03:40:49;;;;;;;;;;;;;;;;;;2097614;28;20007;-43
2021/12/08 03:41:50;;;;;;;;;;;;;;;;;;2102102;28;19973;-43
2021/12/08 03:42:51;;;;;;;;;;;;;;;;;;2106797;28;19931;-43
2021/12/08 03:43:52;;;;;;;;;;;;;;;;;;2102752;28;20384;-43
2021/12/08 03:44:54;;;;;;;;;;;;;;;;;;2099298;28;19947;-43
2021/12/08 03:45:55;;;;;;;;;;;;;;;;;;2098490;28;19979;-43
2021/12/08 03:46:59;;;;;;;;;;;;;;;;;;2098315;28;20439;-43
2021/12/08 03:48:02;;;;;;;;;;;;;;;;;;2098289;28;20329;-43
2021/12/08 03:49:06;;;;;;;;;;;;;;;;;;2098321;28;19968;-43
2021/12/08 03:50:07;;;;;;;;;;;;;;;;;;2098333;28;20535;-43
2021/12/08 03:51:07;;;;;;;;;;;;;;;;;;2106752;28;19931;-43
2021/12/08 03:52:08;;;;;;;;;;;;;;;;;;2106565;28;19928;-43
2021/12/08 03:53:09;;;;;;;;;;;;;;;;;;2100145;28;19929;-43
2021/12/08 03:54:12;;;;;;;;;;;;;;;;;;2098531;28;19931;-43
2021/12/08 03:55:13;;;;;;;;;;;;;;;;;;2098428;28;20301;-43
2021/12/08 03:56:14;;;;;;;;;;;;;;;;;;2098765;28;19997;-44
2021/12/08 03:57:15;;;;;;;;;;;;;;;;;;2098412;28;19989;-43
2021/12/08 03:58:16;;;;;;;;;;;;;;;;;;2098056;28;20293;-48
2021/12/08 03:59:16;;;;;;;;;;;;;;;;;;2098583;28;19925;-43
2021/12/08 04:00:17;;;;;;;;;;;;;;;;;;2098376;28;19924;-43
2021/12/08 04:01:18;;;;;;;;;;;;;;;;;;2097873;28;19931;-43
2021/12/08 04:02:19;;;;;;;;;;;;;;;;;;2098634;28;19978;-43
2021/12/08 04:03:20;;;;;;;;;;;;;;;;;;2098116;28;19931;-43
2021/12/08 04:04:26;;;;;;;;;;;;;;;;;;2097791;28;20011;-43
2021/12/08 04:05:39;;;;;;;;;;;;;;;;;;2098132;28;20396;-43
2021/12/08 04:06:45;;;;;;;;;;;;;;;;;;2098355;28;20391;-43
2021/12/08 04:07:46;;;;;;;;;;;;;;;;;;2098363;28;19931;-43
2021/12/08 04:08:54;;;;;;;;;;;;;;;;;;2098164;28;19931;-43
2021/12/08 04:09:56;;;;;;;;;;;;;;;;;;2098433;28;19959;-43
2021/12/08 04:10:57;;;;;;;;;;;;;;;;;;2097451;28;20018;-43
2021/12/08 04:11:57;;;;;;;;;;;;;;;;;;2106657;28;19928;-43
2021/12/08 04:12:58;;;;;;;;;;;;;;;;;;2106806;28;19988;-43
2021/12/08 04:13:59;;;;;;;;;;;;;;;;;;2098372;28;20096;-43
2021/12/08 04:15:00;;;;;;;;;;;;;;;;;;2098346;28;19924;-43
2021/12/08 04:16:01;;;;;;;;;;;;;;;;;;2097920;28;20296;-43
2021/12/08 04:17:02;;;;;;;;;;;;;;;;;;2098479;28;20305;-43
2021/12/08 04:18:03;;;;;;;;;;;;;;;;;;2098196;28;19931;-43
2021/12/08 04:19:03;;;;;;;;;;;;;;;;;;2097755;28;19970;-43
2021/12/08 04:20:04;;;;;;;;;;;;;;;;;;2099611;28;19931;-43
2021/12/08 04:21:05;;;;;;;;;;;;;;;;;;2098372;28;19973;-43
2021/12/08 04:22:06;;;;;;;;;;;;;;;;;;2097653;28;19929;-49
2021/12/08 04:23:07;;;;;;;;;;;;;;;;;;2102894;28;19935;-43
2021/12/08 04:24:08;;;;;;;;;;;;;;;;;;2106640;28;20030;-43
2021/12/08 04:25:08;;;;;;;;;;;;;;;;;;2102211;28;19928;-43
2021/12/08 04:26:09;;;;;;;;;;;;;;;;;;2103813;28;19924;-43
2021/12/08 04:27:10;;;;;;;;;;;;;;;;;;2106612;28;19958;-43
2021/12/08 04:28:11;;;;;;;;;;;;;;;;;;2100933;28;20309;-43
2021/12/08 04:29:12;;;;;;;;;;;;;;;;;;2097254;28;20289;-43
2021/12/08 04:30:13;;;;;;;;;;;;;;;;;;2098199;28;19931;-43
2021/12/08 04:31:16;;;;;;;;;;;;;;;;;;2098960;28;19924;-43
2021/12/08 04:32:17;;;;;;;;;;;;;;;;;;2097159;28;19998;-44
2021/12/08 04:33:17;;;;;;;;;;;;;;;;;;2098352;28;19924;-43
2021/12/08 04:34:20;;;;;;;;;;;;;;;;;;2098130;28;19925;-43
2021/12/08 04:35:21;;;;;;;;;;;;;;;;;;2098065;28;20019;-43
2021/12/08 04:36:22;;;;;;;;;;;;;;;;;;2098152;28;20293;-43
2021/12/08 04:37:27;;;;;;;;;;;;;;;;;;2097842;28;20344;-44
2021/12/08 04:38:31;;;;;;;;;;;;;;;;;;2098083;28;20085;-43
2021/12/08 04:39:41;;;;;;;;;;;;;;;;;;2097800;28;20015;-44
2021/12/08 04:40:51;;;;;;;;;;;;;;;;;;2100395;28;20015;-43
2021/12/08 04:41:58;;;;;;;;;;;;;;;;;;2106410;28;20475;-44
2021/12/08 04:43:06;;;;;;;;;;;;;;;;;;2100854;28;20015;-44
2021/12/08 04:44:13;;;;;;;;;;;;;;;;;;2097862;28;19998;-44
2021/12/08 04:45:21;;;;;;;;;;;;;;;;;;2098065;28;20023;-44
2021/12/08 04:46:29;;;;;;;;;;;;;;;;;;2098875;28;20468;-44
2021/12/08 04:47:35;;;;;;;;;;;;;;;;;;2098209;28;19932;-44
2021/12/08 04:48:53;;;;;;;;;;;;;;;;;;2097617;28;19933;-44
2021/12/08 04:51:45;;;;;;;;;;;;;;;;;;2071700;28;19925;-44
2021/12/08 04:52:55;;;;;;;;;;;;;;;;;;2071025;28;19925;-45
2021/12/08 05:00:13;;;;;;;;;;;;;;;;;;2072353;28;20020;-45
2021/12/08 05:01:11;;;;;;;;;;;;;;;;;;2097014;28;19999;-44
2021/12/08 05:02:32;;;;;;;;;;;;;;;;;;2089718;28;20015;-45
2021/12/08 05:03:44;;;;;;;;;;;;;;;;;;2091445;28;20003;-45
2021/12/08 05:05:00;;;;;;;;;;;;;;;;;;2098516;28;20098;-45
2021/12/08 05:06:17;;;;;;;;;;;;;;;;;;2098100;28;20019;-45
2021/12/08 05:07:30;;;;;;;;;;;;;;;;;;2097955;28;20016;-45
2021/12/08 05:08:40;;;;;;;;;;;;;;;;;;2098114;28;19963;-45
2021/12/08 05:09:41;;;;;;;;;;;;;;;;;;2097919;28;20015;-46
2021/12/08 05:10:42;;;;;;;;;;;;;;;;;;2096611;28;19928;-44
2021/12/08 05:11:43;;;;;;;;;;;;;;;;;;2097874;28;19932;-45
2021/12/08 05:12:44;;;;;;;;;;;;;;;;;;2097444;28;19932;-45
2021/12/08 05:13:45;;;;;;;;;;;;;;;;;;2098185;28;20319;-44
2021/12/08 05:14:45;;;;;;;;;;;;;;;;;;2098039;28;19925;-44
2021/12/08 05:15:46;;;;;;;;;;;;;;;;;;2097777;28;19925;-44
2021/12/08 05:16:47;;;;;;;;;;;;;;;;;;2097908;28;19925;-44
2021/12/08 05:17:48;;;;;;;;;;;;;;;;;;2097821;28;19924;-45
2021/12/08 05:18:52;;;;;;;;;;;;;;;;;;2097780;28;19932;-44
2021/12/08 05:19:53;;;;;;;;;;;;;;;;;;2098026;28;19925;-44
2021/12/08 05:20:55;;;;;;;;;;;;;;;;;;2097919;28;19947;-44
2021/12/08 05:21:56;;;;;;;;;;;;;;;;;;2097677;28;19927;-44
2021/12/08 05:22:57;;;;;;;;;;;;;;;;;;2097847;28;20362;-44
2021/12/08 05:23:58;;;;;;;;;;;;;;;;;;2097447;28;20512;-44
2021/12/08 05:24:59;;;;;;;;;;;;;;;;;;2099257;28;19928;-44
2021/12/08 05:26:00;;;;;;;;;;;;;;;;;;2097923;28;19929;-44
2021/12/08 05:27:01;;;;;;;;;;;;;;;;;;2097395;28;20015;-44
2021/12/08 05:28:02;;;;;;;;;;;;;;;;;;2098238;28;19935;-44
2021/12/08 05:29:03;;;;;;;;;;;;;;;;;;2096543;28;19946;-43
2021/12/08 05:30:03;;;;;;;;;;;;;;;;;;2097366;28;20338;-44
2021/12/08 05:31:04;;;;;;;;;;;;;;;;;;2099025;28;20335;-44
2021/12/08 05:32:06;;;;;;;;;;;;;;;;;;2106113;28;20007;-44
2021/12/08 05:33:06;;;;;;;;;;;;;;;;;;2103673;28;19975;-44
2021/12/08 05:34:07;;;;;;;;;;;;;;;;;;2099362;28;19934;-44
2021/12/08 05:35:08;;;;;;;;;;;;;;;;;;2097934;28;20019;-44
2021/12/08 05:36:09;;;;;;;;;;;;;;;;;;2096903;28;20409;-44
2021/12/08 05:37:10;;;;;;;;;;;;;;;;;;2098436;28;19924;-44
2021/12/08 05:38:10;;;;;;;;;;;;;;;;;;2097765;28;19929;-44
2021/12/08 05:39:11;;;;;;;;;;;;;;;;;;2096988;28;19925;-44
2021/12/08 05:40:12;;;;;;;;;;;;;;;;;;2098515;28;20380;-44
2021/12/08 05:41:13;;;;;;;;;;;;;;;;;;2097732;28;19931;-44
2021/12/08 05:42:14;;;;;;;;;;;;;;;;;;2097772;28;19925;-44
2021/12/08 05:43:14;;;;;;;;;;;;;;;;;;2098500;28;19935;-44
2021/12/08 05:44:15;;;;;;;;;;;;;;;;;;2097775;28;19924;-44
2021/12/08 05:45:16;;;;;;;;;;;;;;;;;;2096736;28;19925;-44
2021/12/08 05:46:17;;;;;;;;;;;;;;;;;;2103568;28;19985;-44
2021/12/08 05:47:18;;;;;;;;;;;;;;;;;;2106106;28;19931;-45
2021/12/08 05:48:20;;;;;;;;;;;;;;;;;;2099841;28;20274;-44
2021/12/08 05:49:20;;;;;;;;;;;;;;;;;;2104297;28;20015;-44
2021/12/08 05:50:21;;;;;;;;;;;;;;;;;;2106030;28;19932;-44
2021/12/08 05:51:22;;;;;;;;;;;;;;;;;;2100359;28;19931;-44
2021/12/08 05:52:23;;;;;;;;;;;;;;;;;;2097502;28;20381;-44
2021/12/08 05:53:24;;;;;;;;;;;;;;;;;;2097868;28;20051;-44
2021/12/08 05:54:25;;;;;;;;;;;;;;;;;;2097613;28;20319;-44
2021/12/08 05:55:25;;;;;;;;;;;;;;;;;;2097434;28;19924;-44
2021/12/08 05:56:26;;;;;;;;;;;;;;;;;;2097640;28;19924;-44
2021/12/08 05:57:27;;;;;;;;;;;;;;;;;;2097425;28;19924;-44
2021/12/08 05:58:28;;;;;;;;;;;;;;;;;;2097668;28;19924;-44
2021/12/08 05:59:29;;;;;;;;;;;;;;;;;;2097703;28;19938;-44
2021/12/08 06:00:29;;;;;;;;;;;;;;;;;;2097548;28;19947;-44
2021/12/08 06:01:30;;;;;;;;;;;;;;;;;;2097694;28;19925;-44
2021/12/08 06:02:31;;;;;;;;;;;;;;;;;;2097618;28;19924;-44
2021/12/08 06:03:32;;;;;;;;;;;;;;;;;;2098210;28;20492;-44
2021/12/08 06:04:33;;;;;;;;;;;;;;;;;;2106206;28;19931;-41
2021/12/08 06:05:34;;;;;;;;;;;;;;;;;;2104834;28;19924;-43
2021/12/08 06:06:35;;;;;;;;;;;;;;;;;;2098047;28;19925;-44
2021/12/08 06:07:36;;;;;;;;;;;;;;;;;;2097684;28;19924;-44
2021/12/08 06:08:36;;;;;;;;;;;;;;;;;;2097225;28;19924;-44
2021/12/08 06:09:37;;;;;;;;;;;;;;;;;;2099404;28;19924;-44
2021/12/08 06:10:38;;;;;;;;;;;;;;;;;;2106111;28;19924;-44
2021/12/08 06:11:39;;;;;;;;;;;;;;;;;;2103684;28;20005;-44
2021/12/08 06:12:40;;;;;;;;;;;;;;;;;;2097869;28;20019;-44
2021/12/08 06:13:40;;;;;;;;;;;;;;;;;;2097647;28;19924;-43
2021/12/08 06:14:41;;;;;;;;;;;;;;;;;;2096914;28;20443;-43
2021/12/08 06:15:42;;;;;;;;;;;;;;;;;;2098538;28;19928;-43
2021/12/08 06:16:43;;;;;;;;;;;;;;;;;;2099095;28;19933;-43
2021/12/08 06:17:44;;;;;;;;;;;;;;;;;;2097865;28;19967;-44
2021/12/08 06:18:45;;;;;;;;;;;;;;;;;;2099622;28;19924;-43
2021/12/08 06:19:46;;;;;;;;;;;;;;;;;;2099050;28;19931;-43
2021/12/08 06:20:46;;;;;;;;;;;;;;;;;;2099304;28;20246;-43
2021/12/08 06:21:47;;;;;;;;;;;;;;;;;;2099829;28;19924;-43
2021/12/08 06:22:48;;;;;;;;;;;;;;;;;;2099053;28;19928;-43
2021/12/08 06:23:49;;;;;;;;;;;;;;;;;;2098071;28;20395;-44
2021/12/08 06:24:50;;;;;;;;;;;;;;;;;;2104676;28;19928;-44
2021/12/08 06:25:51;;;;;;;;;;;;;;;;;;2107241;28;19924;-44
2021/12/08 06:26:52;;;;;;;;;;;;;;;;;;2101663;28;20380;-44
2021/12/08 06:27:52;;;;;;;;;;;;;;;;;;2099523;28;20011;-44
2021/12/08 06:28:53;;;;;;;;;;;;;;;;;;2097506;28;19978;-44
2021/12/08 06:29:54;;;;;;;;;;;;;;;;;;2099841;28;19994;-44
2021/12/08 06:30:55;;;;;;;;;;;;;;;;;;2098839;28;19924;-44
2021/12/08 06:31:55;;;;;;;;;;;;;;;;;;2099003;28;19924;-44
2021/12/08 06:32:56;;;;;;;;;;;;;;;;;;2098826;28;19924;-44
2021/12/08 06:33:57;;;;;;;;;;;;;;;;;;2106491;28;20365;-45
2021/12/08 06:34:58;;;;;;;;;;;;;;;;;;2107217;28;20057;-44
2021/12/08 06:35:59;;;;;;;;;;;;;;;;;;2100564;28;19930;-44
2021/12/08 06:37:00;;;;;;;;;;;;;;;;;;2098713;28;19924;-44
2021/12/08 06:38:01;;;;;;;;;;;;;;;;;;2099044;28;20020;-44
2021/12/08 06:39:02;;;;;;;;;;;;;;;;;;2098602;28;19935;-45
2021/12/08 06:40:02;;;;;;;;;;;;;;;;;;2098892;28;19929;-44
2021/12/08 06:41:03;;;;;;;;;;;;;;;;;;2098927;28;19924;-44
2021/12/08 06:42:04;;;;;;;;;;;;;;;;;;2099653;28;19924;-44
2021/12/08 06:43:05;;;;;;;;;;;;;;;;;;2099051;28;19928;-45
2021/12/08 06:44:06;;;;;;;;;;;;;;;;;;2098336;28;19925;-44
2021/12/08 06:45:07;;;;;;;;;;;;;;;;;;2099119;28;19991;-44
2021/12/08 06:46:13;;;;;;;;;;;;;;;;;;2098884;28;19928;-44
2021/12/08 06:47:16;;;;;;;;;;;;;;;;;;2098287;28;20019;-44
2021/12/08 06:48:17;;;;;;;;;;;;;;;;;;2100452;28;20027;-44
2021/12/08 06:49:18;;;;;;;;;;;;;;;;;;2099000;28;20335;-44
2021/12/08 06:50:19;;;;;;;;;;;;;;;;;;2098052;28;20266;-44
2021/12/08 06:51:19;;;;;;;;;;;;;;;;;;2100276;28;20303;-44
2021/12/08 06:52:20;;;;;;;;;;;;;;;;;;2098789;28;20346;-44
2021/12/08 06:53:22;;;;;;;;;;;;;;;;;;2097835;28;19951;-43
2021/12/08 06:54:23;;;;;;;;;;;;;;;;;;2103386;28;19972;-44
2021/12/08 06:55:23;;;;;;;;;;;;;;;;;;2103692;28;19924;-44
2021/12/08 06:56:24;;;;;;;;;;;;;;;;;;2097969;28;20331;-44
2021/12/08 06:57:25;;;;;;;;;;;;;;;;;;2106334;28;19924;-44
2021/12/08 06:58:26;;;;;;;;;;;;;;;;;;2107136;28;19923;-44
2021/12/08 06:59:27;;;;;;;;;;;;;;;;;;2100233;28;19931;-43
2021/12/08 07:00:38;;;;;;;;;;;;;;;;;;2098703;28;19924;-44
2021/12/08 07:01:44;;;;;;;;;;;;;;;;;;2098460;28;19925;-44
2021/12/08 07:03:01;;;;;;;;;;;;;;;;;;2100405;28;19924;-44
2021/12/08 07:04:12;;;;;;;;;;;;;;;;;;2107188;28;19924;-44
2021/12/08 07:05:25;;;;;;;;;;;;;;;;;;2101284;28;20043;-44
2021/12/08 07:06:41;;;;;;;;;;;;;;;;;;2090508;28;20015;-44
2021/12/08 07:07:42;;;;;;;;;;;;;;;;;;2091235;28;20020;-44
2021/12/08 07:08:42;;;;;;;;;;;;;;;;;;2099819;28;19939;-44
2021/12/08 07:09:43;;;;;;;;;;;;;;;;;;2107202;28;19924;-44
2021/12/08 07:10:44;;;;;;;;;;;;;;;;;;2104529;28;19932;-44
2021/12/08 07:11:45;;;;;;;;;;;;;;;;;;2099023;28;19925;-44
2021/12/08 07:12:46;;;;;;;;;;;;;;;;;;2098587;28;19947;-44
2021/12/08 07:13:47;;;;;;;;;;;;;;;;;;2097974;28;20178;-44
2021/12/08 07:15:04;;;;;;;;;;;;;;;;;;2098304;28;20012;-44
2021/12/08 07:16:04;;;;;;;;;;;;;;;;;;2098475;28;19930;-44
2021/12/08 07:17:07;;;;;;;;;;;;;;;;;;2097493;28;19928;-44
2021/12/08 07:18:08;;;;;;;;;;;;;;;;;;2104815;28;19928;-44
2021/12/08 07:19:11;;;;;;;;;;;;;;;;;;2106978;28;20188;-44
2021/12/08 07:20:15;;;;;;;;;;;;;;;;;;2100187;28;19964;-44
2021/12/08 07:21:16;;;;;;;;;;;;;;;;;;2098624;28;19924;-44
2021/12/08 07:22:17;;;;;;;;;;;;;;;;;;2098521;28;19970;-45
2021/12/08 07:23:18;;;;;;;;;;;;;;;;;;2099578;28;19957;-45
2021/12/08 07:24:19;;;;;;;;;;;;;;;;;;2098867;28;19924;-45
2021/12/08 07:25:19;;;;;;;;;;;;;;;;;;2098678;28;19924;-45
2021/12/08 07:26:20;;;;;;;;;;;;;;;;;;2098805;28;20400;-44
2021/12/08 07:27:21;;;;;;;;;;;;;;;;;;2098283;28;19975;-61
2021/12/08 07:28:22;;;;;;;;;;;;;;;;;;2098224;28;19963;-61
2021/12/08 07:29:23;;;;;;;;;;;;;;;;;;2097416;28;19932;-61
2021/12/08 07:30:24;;;;;;;;;;;;;;;;;;2098635;28;19924;-62
2021/12/08 07:31:24;;;;;;;;;;;;;;;;;;2098276;28;20272;-62
2021/12/08 07:32:26;;;;;;;;;;;;;;;;;;2098774;28;20011;-61